Terminal Aerodrome Forecast
Issued by NWS

Home | Current Version | Previous Version | Text Only | Print | Product List | Glossary On
Versions: 1 2 3 4 5 6 7 8 9 10 11 12 13 14
000
FTUS46 KPDT 060018 AAA
TAFPSC
TAF AMD
KPSC 060018Z 0600/0624 26011KT P6SM SCT090
     FM060400 VRB05KT P6SM SCT250
     FM060900 VRB04KT P6SM SCT110 SCT250
     FM061900 32010KT P6SM SCT070 BKN110=

USA.gov is the U.S. government's official web portal to all federal, state and local government web resources and services.